Webcam 1 more information Webcam 1


Webcam 2 more information Webcam 2


altri nostri siti meteo:

TortoretometeolidoSito sul meteo

TortoretometeolidoSito sul meteo

Pomeziameteo 1Sito sul meteo


Notice: Undefined offset: 3 in /web/htdocs/www.tortoretometeo.it/home/weather28/wsSideColom.php on line 204

Pomeziameteo DashboardSito sul meteo

Caput FrigorisSito sul meteo

BarcellonameteoSito sul meteo

MeteoipassiSito sul meteo

ViterbometeoSito sul meteo

CastelnuovovomanometeoSito sul meteo



Non è richiesta alcuna attenzione speciale.    Non sono presenti avvisi meteorologici di particolare rilevanza

Notice: Undefined offset: 6 in /web/htdocs/www.tortoretometeo.it/home/weather28/metar/metarDisplay.php on line 75

Notice: Undefined offset: 5 in /web/htdocs/www.tortoretometeo.it/home/weather28/metar/metarDisplay.php on line 75

Report METAR

   
LIBP - Pescara
Dati ricevuti: 16-05-2021 14:50
Coperto  
Coperto  
   Vento: NE 7.4 km/h
Vento: NE 7.4 km/h
Temperatura: 19°C
P.to Rugiada: 12°C
Umidita: 64%
Barometro: 1011 hPa
Nuvole: Coperto
Visibilita: oltre 10 km
dettagli cloud: Coperto 9200 ft
LIBP 161250Z AUTO 06004KT 9999 OVC092/// 19/12 Q1011
LIRZ - Perugia
Dati ricevuti: 16-05-2021 14:50
Pioggia leggera, Coperto  
Pioggia leggera, Coperto  
   Vento: S 9.3 km/h
Vento: S 9.3 km/h
Temperatura: 15°C
P.to Rugiada: 14°C
Umidita: 94%
Barometro: 1012 hPa
Nuvole: Coperto
Visibilita: oltre 10 km
dettagli cloud: Coperto 3100 ft
LIRZ 161250Z AUTO 16005KT 9999 -RA OVC031/// 15/14 Q1012
LIQN - Rieti
Dati ricevuti: 16-05-2021 14:50
Nearby Showers, Poche nuvole  
Nearby Showers, Poche nuvole  
   Vento: Oriente 11.1 km/h
Vento: Oriente 11.1 km/h
Temperatura: 16°C
P.to Rugiada: 11°C
Umidita: 72%
Barometro: 1014 hPa
Nuvole: Poche nuvole
Visibilita: 9 km
dettagli cloud: Poche nuvole 4500 ft
LIQN 161250Z 09006KT 9000 VCSH FEW045 16/11 Q1014
LIPY - Falconara
Dati ricevuti: 16-05-2021 14:50
Molto nuvoloso  
Molto nuvoloso  
   Vento: W 18.5 km/h
Vento: W 18.5 km/h
Temperatura: 20°C
P.to Rugiada: 11°C
Umidita: 56%
Barometro: 1010 hPa
Nuvole: Molto nuvoloso
Visibilita: oltre 10 km
dettagli cloud: Poche nuvole 3500 ft,
Molto nuvoloso 10000 ft
LIPY 161250Z AUTO 24010KT 210V280 9999 FEW035/// BKN100/// 20/11 Q1010
  

Script sviluppato da  Saratoga-weather.org Adattato per il modello da  Weerstation Leuven

Potete trovare le nostre info meteo anche a:

European Weather Network

Weather Underground

AWEKAS

Citizen Weather Observer Program (CWOP)

HAMweather, WeatherForYou, PWS Weather

Strumentazione usata:

Stazione meteo
Davis VP2

Programma gestore dati meteo
WVIEW

Server per i dati meteo
My Computer

Provider
My provider

Davis VP2

WVIEW

My Computer

My provider